createdAt,value
2017-08-22T00:01:17.756Z,10.30
2017-08-22T00:03:44.327Z,14.80
2017-08-22T00:06:10.931Z,14.53
2017-08-22T00:08:37.617Z,11.00
2017-08-22T00:11:04.345Z,9.77
2017-08-22T00:13:30.943Z,12.00
2017-08-22T00:15:57.538Z,11.60
2017-08-22T00:18:24.135Z,15.10
2017-08-22T00:20:50.719Z,9.00
2017-08-22T00:23:17.318Z,9.67
2017-08-22T00:25:43.903Z,8.80
2017-08-22T00:28:10.499Z,8.73
2017-08-22T00:30:37.096Z,13.20
2017-08-22T00:33:03.691Z,10.23
2017-08-22T00:35:30.331Z,13.53
2017-08-22T00:37:56.927Z,12.93
2017-08-22T00:40:23.528Z,8.27
2017-08-22T00:42:50.120Z,11.07
2017-08-22T00:45:16.708Z,12.40
2017-08-22T00:47:43.312Z,10.03
2017-08-22T00:50:09.903Z,7.70
2017-08-22T00:52:36.487Z,9.10
2017-08-22T00:55:03.079Z,9.63
2017-08-22T00:57:29.675Z,16.90
2017-08-22T00:59:56.264Z,7.87
2017-08-22T01:02:22.975Z,9.73
2017-08-22T01:04:49.568Z,8.37
2017-08-22T01:07:16.153Z,8.60
2017-08-22T01:09:42.791Z,17.23
2017-08-22T01:12:09.412Z,8.77
2017-08-22T01:14:35.979Z,7.97
2017-08-22T01:17:02.579Z,8.40
2017-08-22T01:19:29.186Z,7.20
2017-08-22T01:21:55.780Z,12.10
2017-08-22T01:24:22.389Z,9.67
2017-08-22T01:26:48.968Z,9.97
2017-08-22T01:29:15.579Z,9.67
2017-08-22T01:31:42.163Z,8.23
2017-08-22T01:34:08.767Z,8.77
2017-08-22T01:36:35.359Z,7.17
2017-08-22T01:39:01.951Z,11.57
2017-08-22T01:41:28.653Z,8.73
2017-08-22T01:43:55.215Z,7.87
2017-08-22T01:46:21.805Z,8.83
2017-08-22T01:48:48.422Z,7.20
2017-08-22T01:51:15.017Z,7.70
2017-08-22T01:53:41.756Z,11.13
2017-08-22T01:56:08.472Z,9.53
2017-08-22T01:58:35.060Z,8.33
2017-08-22T02:01:01.655Z,8.63
2017-08-22T02:03:28.238Z,7.27
2017-08-22T02:05:54.992Z,10.20
2017-08-22T02:08:21.599Z,7.50
2017-08-22T02:10:48.182Z,10.73
2017-08-22T02:13:14.787Z,10.03
2017-08-22T02:15:41.375Z,15.13
2017-08-22T02:18:08.115Z,9.60
2017-08-22T02:20:34.699Z,7.13
2017-08-22T02:23:01.300Z,11.60
2017-08-22T02:25:27.883Z,6.80
2017-08-22T02:27:54.475Z,8.50
2017-08-22T02:30:21.081Z,11.60
2017-08-22T02:32:47.665Z,7.67
2017-08-22T02:35:14.251Z,8.70
2017-08-22T02:37:40.850Z,10.57
2017-08-22T02:40:07.436Z,9.40
2017-08-22T02:42:34.184Z,11.50
2017-08-22T02:45:00.774Z,7.17
2017-08-22T02:47:27.376Z,7.43
2017-08-22T02:49:53.979Z,7.17
2017-08-22T02:52:20.559Z,8.20
2017-08-22T02:54:47.195Z,7.10
2017-08-22T02:57:13.787Z,9.50
2017-08-22T02:59:40.371Z,9.27
2017-08-22T03:02:06.958Z,7.40
2017-08-22T03:04:33.547Z,10.80
2017-08-22T03:09:33.256Z,11.77
2017-08-22T03:11:59.855Z,9.50
2017-08-22T03:14:26.456Z,9.33
2017-08-22T03:16:53.055Z,11.07
2017-08-22T03:19:19.647Z,9.23
2017-08-22T03:21:46.241Z,10.20
2017-08-22T03:24:12.860Z,8.13
2017-08-22T03:26:39.462Z,7.10
2017-08-22T03:29:06.059Z,6.90
2017-08-22T03:31:32.659Z,9.60
2017-08-22T03:33:59.240Z,7.60
2017-08-22T03:36:25.943Z,8.00
2017-08-22T03:38:52.516Z,6.70
2017-08-22T03:41:19.100Z,8.30
2017-08-22T03:43:45.732Z,7.50
2017-08-22T03:46:12.324Z,10.30
2017-08-22T03:48:39.071Z,7.83
2017-08-22T03:51:05.657Z,9.77
2017-08-22T03:53:32.249Z,7.73
2017-08-22T03:55:58.839Z,8.10
2017-08-22T03:58:25.424Z,7.13
2017-08-22T04:00:52.128Z,8.10
2017-08-22T04:03:18.707Z,7.87
2017-08-22T04:05:45.385Z,7.23
2017-08-22T04:08:11.964Z,7.80
2017-08-22T04:10:38.561Z,12.83
2017-08-22T04:13:05.167Z,7.10
2017-08-22T04:15:31.755Z,7.30
2017-08-22T04:17:58.339Z,7.03
2017-08-22T04:20:24.938Z,11.80
2017-08-22T04:22:51.577Z,8.90
2017-08-22T04:25:18.519Z,7.00
2017-08-22T04:27:45.108Z,9.10
2017-08-22T04:30:11.699Z,13.83
2017-08-22T04:32:38.296Z,8.40
2017-08-22T04:35:04.883Z,7.60
2017-08-22T04:37:31.842Z,7.97
2017-08-22T04:39:58.426Z,6.90
2017-08-22T04:42:25.024Z,10.93
2017-08-22T04:44:51.621Z,9.83
2017-08-22T04:47:18.237Z,8.90
2017-08-22T04:49:45.127Z,7.30
2017-08-22T04:52:11.716Z,7.33
2017-08-22T04:54:38.363Z,9.97
2017-08-22T04:57:04.952Z,7.63
2017-08-22T04:59:31.552Z,10.87
2017-08-22T05:01:58.595Z,7.27
2017-08-22T05:04:25.236Z,7.53
2017-08-22T05:06:51.815Z,9.40
2017-08-22T05:09:18.760Z,8.23
2017-08-22T05:11:45.353Z,15.73
2017-08-22T05:14:12.103Z,8.83
2017-08-22T05:16:38.744Z,10.13
2017-08-22T05:19:05.327Z,10.93
2017-08-22T05:21:31.938Z,8.17
2017-08-22T05:23:58.523Z,8.00
2017-08-22T05:26:25.269Z,15.10
2017-08-22T05:28:51.859Z,16.47
2017-08-22T05:31:18.461Z,11.53
2017-08-22T05:33:45.051Z,10.30
2017-08-22T05:36:11.688Z,8.07
2017-08-22T05:38:38.331Z,10.43
2017-08-22T05:41:04.956Z,10.50
2017-08-22T05:43:31.590Z,11.70
2017-08-22T05:45:58.184Z,9.77
2017-08-22T05:48:24.780Z,11.70
2017-08-22T05:50:51.529Z,8.57
2017-08-22T05:53:18.123Z,8.50
2017-08-22T05:55:44.735Z,11.90
2017-08-22T05:58:11.330Z,9.03
2017-08-22T06:00:37.924Z,8.67
2017-08-22T06:03:04.859Z,8.23
2017-08-22T06:05:31.444Z,9.43
2017-08-22T06:07:58.040Z,8.30
2017-08-22T06:10:24.654Z,9.33
2017-08-22T06:12:51.244Z,8.70
2017-08-22T06:15:18.263Z,10.13
2017-08-22T06:17:44.915Z,9.43
2017-08-22T06:20:11.517Z,12.00
2017-08-22T06:22:38.173Z,10.20
2017-08-22T06:25:04.769Z,9.00
2017-08-22T06:27:31.566Z,11.50
2017-08-22T06:29:58.168Z,10.03
2017-08-22T06:32:24.812Z,13.97
2017-08-22T06:34:51.438Z,8.60
2017-08-22T06:37:18.039Z,9.30
2017-08-22T06:39:44.899Z,9.93
2017-08-22T06:42:11.484Z,9.57
2017-08-22T06:44:38.080Z,8.73
2017-08-22T06:47:04.681Z,9.03
2017-08-22T06:49:31.307Z,8.27
2017-08-22T06:51:57.967Z,8.60
2017-08-22T06:54:24.539Z,8.23
2017-08-22T06:56:51.128Z,8.57
2017-08-22T06:59:17.723Z,8.63
2017-08-22T07:01:44.312Z,6.50
2017-08-22T07:04:10.920Z,7.93
2017-08-22T07:06:40.799Z,10.20
2017-08-22T07:09:07.384Z,6.33
2017-08-22T07:11:33.991Z,5.50
2017-08-22T07:14:00.587Z,7.23
2017-08-22T07:16:27.327Z,8.53
2017-08-22T07:18:53.911Z,7.70
2017-08-22T07:21:20.490Z,8.17
2017-08-22T07:23:47.087Z,7.40
2017-08-22T07:26:13.671Z,8.60
2017-08-22T07:28:40.591Z,9.83
2017-08-22T07:31:07.214Z,5.90
2017-08-22T07:33:33.783Z,6.23
2017-08-22T07:36:00.789Z,6.43
2017-08-22T07:38:27.465Z,6.87
2017-08-22T07:40:54.064Z,7.23
2017-08-22T07:43:20.703Z,8.00
2017-08-22T07:45:47.293Z,7.80
2017-08-22T07:48:13.936Z,7.13
2017-08-22T07:51:02.273Z,7.40
2017-08-22T07:53:33.801Z,6.33
2017-08-22T08:02:00.735Z,5.67
2017-08-22T08:04:35.568Z,7.10
2017-08-22T08:07:08.737Z,6.20
2017-08-22T08:09:49.919Z,5.57
2017-08-22T08:12:17.336Z,7.23
2017-08-22T08:14:43.963Z,6.40
2017-08-22T08:17:10.563Z,5.63
2017-08-22T08:19:37.204Z,7.83
2017-08-22T08:22:03.935Z,10.90
2017-08-22T08:24:30.523Z,8.33
2017-08-22T08:26:57.263Z,7.03
2017-08-22T08:29:23.851Z,6.80
2017-08-22T08:31:50.452Z,7.47
2017-08-22T08:34:17.159Z,9.93
2017-08-22T08:36:43.744Z,7.37
2017-08-22T08:39:10.495Z,5.80
2017-08-22T08:41:37.064Z,9.37
2017-08-22T08:44:03.687Z,5.73
2017-08-22T08:46:30.275Z,6.53
2017-08-22T08:48:56.855Z,5.33
2017-08-22T08:51:23.610Z,6.67
2017-08-22T08:53:50.222Z,7.70
2017-08-22T08:56:16.827Z,7.83
2017-08-22T08:58:43.411Z,9.93
2017-08-22T09:01:09.996Z,5.67
2017-08-22T09:03:36.748Z,6.53
2017-08-22T09:06:03.407Z,6.17
2017-08-22T09:08:30.000Z,7.33
2017-08-22T09:10:56.615Z,8.53
2017-08-22T09:13:23.202Z,8.30
2017-08-22T09:15:49.794Z,6.73
2017-08-22T09:18:16.385Z,10.60
2017-08-22T09:20:42.963Z,6.47
2017-08-22T09:23:09.551Z,4.73
2017-08-22T09:25:36.139Z,6.40
2017-08-22T09:28:02.778Z,4.57
2017-08-22T09:30:29.567Z,8.53
2017-08-22T09:32:56.148Z,8.63
2017-08-22T09:35:22.750Z,8.27
2017-08-22T09:37:49.333Z,6.93
2017-08-22T09:40:15.939Z,6.50
2017-08-22T09:42:42.526Z,5.70
2017-08-22T09:45:09.112Z,6.30
2017-08-22T09:47:35.722Z,6.13
2017-08-22T09:50:02.308Z,6.40
2017-08-22T09:52:28.903Z,4.97
2017-08-22T09:54:55.492Z,6.73
2017-08-22T09:57:22.085Z,5.60
2017-08-22T09:59:48.671Z,5.17
2017-08-22T10:02:15.264Z,3.33
2017-08-22T10:04:41.893Z,7.37
2017-08-22T10:07:08.466Z,5.40
2017-08-22T10:09:35.057Z,5.60
2017-08-22T10:12:01.655Z,3.50
2017-08-22T10:14:28.240Z,4.77
2017-08-22T10:16:54.935Z,5.40
2017-08-22T10:19:21.523Z,7.40
2017-08-22T10:21:48.154Z,4.47
2017-08-22T10:24:14.736Z,5.80
2017-08-22T10:26:41.324Z,6.77
2017-08-22T10:29:08.024Z,7.60
2017-08-22T10:31:34.640Z,4.53
2017-08-22T10:34:01.232Z,2.93
2017-08-22T10:36:27.831Z,6.40
2017-08-22T10:38:54.421Z,8.60
2017-08-22T10:41:21.028Z,7.13
2017-08-22T10:43:47.611Z,7.50
2017-08-22T10:46:14.201Z,6.63
2017-08-22T10:48:40.796Z,5.93
2017-08-22T10:51:07.379Z,4.47
2017-08-22T10:53:34.313Z,4.47
2017-08-22T10:56:01.164Z,4.00
2017-08-22T10:58:27.770Z,4.30
2017-08-22T11:00:54.363Z,3.10
2017-08-22T11:03:20.956Z,3.50
2017-08-22T11:05:47.699Z,4.87
2017-08-22T11:08:14.275Z,5.40
2017-08-22T11:10:40.867Z,4.00
2017-08-22T11:13:07.462Z,5.60
2017-08-22T11:15:34.063Z,4.87
2017-08-22T11:18:00.805Z,4.83
2017-08-22T11:20:27.390Z,6.10
2017-08-22T11:22:53.998Z,3.93
2017-08-22T11:25:20.591Z,4.77
2017-08-22T11:27:47.176Z,5.67
2017-08-22T11:30:14.203Z,3.40
2017-08-22T11:32:40.788Z,4.37
2017-08-22T11:35:07.435Z,3.00
2017-08-22T11:37:34.015Z,4.47
2017-08-22T11:40:00.606Z,3.73
2017-08-22T11:42:27.344Z,6.23
2017-08-22T11:44:53.987Z,3.80
2017-08-22T11:47:20.575Z,3.87
2017-08-22T11:49:47.171Z,3.73
2017-08-22T11:54:47.033Z,4.00
2017-08-22T11:57:13.615Z,5.47
2017-08-22T11:59:40.204Z,4.57
2017-08-22T12:02:06.827Z,4.27
2017-08-22T12:04:33.415Z,4.07
2017-08-22T12:07:00.169Z,5.30
2017-08-22T12:09:26.759Z,4.17
2017-08-22T12:11:53.343Z,4.73
2017-08-22T12:14:19.940Z,3.97
2017-08-22T12:19:31.906Z,4.00
2017-08-22T12:21:58.492Z,5.60
2017-08-22T12:24:25.074Z,4.00
2017-08-22T12:26:51.672Z,9.73
2017-08-22T12:29:18.268Z,3.83
2017-08-22T12:31:45.019Z,2.80
2017-08-22T12:34:11.622Z,5.50
2017-08-22T12:36:38.204Z,4.60
2017-08-22T12:39:04.797Z,3.23
2017-08-22T12:41:31.388Z,5.60
2017-08-22T12:43:58.330Z,5.30
2017-08-22T12:46:24.915Z,3.53
2017-08-22T12:48:51.550Z,6.00
2017-08-22T12:51:18.143Z,8.23
2017-08-22T12:53:44.730Z,7.37
2017-08-22T12:56:11.441Z,4.30
2017-08-22T12:58:38.043Z,6.37
2017-08-22T13:01:04.636Z,4.77
2017-08-22T13:03:31.227Z,4.73
2017-08-22T13:05:57.810Z,3.07
2017-08-22T13:08:24.439Z,3.40
2017-08-22T13:10:51.026Z,3.40
2017-08-22T13:13:17.615Z,2.70
2017-08-22T13:15:44.694Z,4.40
2017-08-22T13:18:11.337Z,4.23
2017-08-22T13:20:38.143Z,2.93
2017-08-22T13:23:04.756Z,3.93
2017-08-22T13:25:31.329Z,3.07
2017-08-22T13:27:57.919Z,4.07
2017-08-22T13:30:24.511Z,2.80
2017-08-22T13:32:51.247Z,5.80
2017-08-22T13:35:17.869Z,3.33
2017-08-22T13:37:44.455Z,3.03
2017-08-22T13:40:11.054Z,4.53
2017-08-22T13:42:37.639Z,3.27
2017-08-22T13:45:04.400Z,5.90
2017-08-22T13:59:31.343Z,2.70
2017-08-22T14:07:57.401Z,2.80
2017-08-22T14:10:23.984Z,4.60
2017-08-22T14:12:50.571Z,2.90
2017-08-22T14:15:17.209Z,6.67
2017-08-22T14:17:43.794Z,3.63
2017-08-22T14:20:10.724Z,3.30
2017-08-22T14:22:37.310Z,3.27
2017-08-22T14:25:03.901Z,3.43
2017-08-22T14:27:30.499Z,3.40
2017-08-22T14:29:57.103Z,9.23
2017-08-22T14:32:23.799Z,7.80
2017-08-22T14:34:50.443Z,4.63
2017-08-22T14:37:17.036Z,2.80
2017-08-22T14:39:43.647Z,4.60
2017-08-22T14:42:10.235Z,4.57
2017-08-22T14:44:36.938Z,3.80
2017-08-22T14:47:03.543Z,4.57
2017-08-22T14:55:07.972Z,2.67
2017-08-22T14:57:36.749Z,4.30
2017-08-22T15:00:24.136Z,3.70
2017-08-22T15:03:06.404Z,4.23
2017-08-22T15:05:35.578Z,2.97
2017-08-22T15:08:03.256Z,2.90
2017-08-22T15:10:34.591Z,2.93
2017-08-22T15:13:06.607Z,4.10
2017-08-22T15:15:38.589Z,5.17
2017-08-22T15:20:46.456Z,3.07
2017-08-22T15:23:19.870Z,2.93
2017-08-22T15:25:48.511Z,2.80
2017-08-22T15:28:17.927Z,5.30
2017-08-22T15:30:55.520Z,3.20
2017-08-22T15:33:28.077Z,3.10
2017-08-22T15:36:00.396Z,2.93
2017-08-22T15:38:37.459Z,2.70
2017-08-22T15:41:04.944Z,3.50
2017-08-22T15:43:34.489Z,2.83
2017-08-22T15:46:01.931Z,3.10
2017-08-22T15:48:30.047Z,2.93
2017-08-22T15:50:59.356Z,6.93
2017-08-22T15:53:31.988Z,2.87
2017-08-22T15:56:00.220Z,5.60
2017-08-22T16:01:02.214Z,6.53
2017-08-22T16:03:28.803Z,3.50
2017-08-22T16:05:55.433Z,7.10
2017-08-22T16:08:22.067Z,3.47
2017-08-22T16:10:48.679Z,6.67
2017-08-22T16:13:15.327Z,8.10
2017-08-22T16:15:42.038Z,3.57
2017-08-22T16:18:08.846Z,5.27
2017-08-22T16:20:35.800Z,4.23
2017-08-22T16:23:02.386Z,5.30
2017-08-22T16:25:28.998Z,4.83
2017-08-22T16:27:55.749Z,3.83
2017-08-22T16:30:22.403Z,5.50
2017-08-22T16:32:49.062Z,4.50
2017-08-22T16:35:15.671Z,5.80
2017-08-22T16:37:42.263Z,4.67
2017-08-22T16:40:09.012Z,3.70
2017-08-22T16:42:35.603Z,3.10
2017-08-22T16:45:02.204Z,5.63
2017-08-22T16:47:28.819Z,4.30
2017-08-22T16:49:55.415Z,3.87
2017-08-22T16:52:39.328Z,3.13
2017-08-22T16:55:10.575Z,6.20
2017-08-22T16:57:43.819Z,5.30
2017-08-22T17:00:21.721Z,3.20
2017-08-22T17:02:49.277Z,4.50
2017-08-22T17:05:16.725Z,4.60
2017-08-22T17:07:56.207Z,4.03
2017-08-22T17:10:22.802Z,3.20
2017-08-22T17:12:49.395Z,4.10
2017-08-22T17:15:15.992Z,5.83
2017-08-22T17:17:43.091Z,4.30
2017-08-22T17:22:45.751Z,4.47
2017-08-22T17:25:12.515Z,3.40
2017-08-22T17:27:39.108Z,4.60
2017-08-22T17:30:05.739Z,10.57
2017-08-22T17:32:32.315Z,8.47
2017-08-22T17:34:58.907Z,4.47
2017-08-22T17:37:25.508Z,4.50
2017-08-22T17:39:52.211Z,8.07
2017-08-22T17:42:18.799Z,8.80
2017-08-22T17:44:51.507Z,3.50
2017-08-22T17:47:18.103Z,7.60
2017-08-22T17:49:45.070Z,7.17
2017-08-22T17:52:15.831Z,4.60
2017-08-22T17:54:43.632Z,8.53
2017-08-22T17:57:10.587Z,6.83
2017-08-22T17:59:37.261Z,12.10
2017-08-22T18:02:03.999Z,8.23
2017-08-22T18:04:40.728Z,3.87
2017-08-22T18:07:07.586Z,5.30
2017-08-22T18:09:43.907Z,6.33
2017-08-22T18:12:10.508Z,5.87
2017-08-22T18:14:37.113Z,6.23
2017-08-22T18:17:03.704Z,4.83
2017-08-22T18:19:30.299Z,5.23
2017-08-22T18:21:56.946Z,7.27
2017-08-22T18:24:23.675Z,6.83
2017-08-22T18:26:50.263Z,4.20
2017-08-22T18:29:16.851Z,4.40
2017-08-22T18:31:43.459Z,7.47
2017-08-22T18:34:10.060Z,6.10
2017-08-22T18:36:36.691Z,6.20
2017-08-22T18:39:03.292Z,7.13
2017-08-22T18:41:29.885Z,10.93
2017-08-22T18:43:56.478Z,7.30
2017-08-22T18:46:23.067Z,7.20
2017-08-22T18:48:49.765Z,8.53
2017-08-22T18:51:16.356Z,6.03
2017-08-22T18:53:42.944Z,6.77
2017-08-22T18:56:09.588Z,7.67
2017-08-22T18:58:36.181Z,8.93
2017-08-22T19:01:02.795Z,6.33
2017-08-22T19:03:29.401Z,7.60
2017-08-22T19:05:55.980Z,6.40
2017-08-22T19:08:22.575Z,5.90
2017-08-22T19:10:49.181Z,9.13
2017-08-22T19:13:15.880Z,7.17
2017-08-22T19:15:42.468Z,5.87
2017-08-22T19:18:09.128Z,6.47
2017-08-22T19:20:35.728Z,7.67
2017-08-22T19:23:02.319Z,8.30
2017-08-22T19:25:29.184Z,8.27
2017-08-22T19:27:55.776Z,11.07
2017-08-22T19:30:22.387Z,6.60
2017-08-22T19:32:49.160Z,9.43
2017-08-22T19:35:15.740Z,9.77
2017-08-22T19:37:42.351Z,9.70
2017-08-22T19:40:08.956Z,14.63
2017-08-22T19:42:35.596Z,12.87
2017-08-22T19:45:02.201Z,12.80
2017-08-22T19:47:28.787Z,7.03
2017-08-22T19:49:55.523Z,8.07
2017-08-22T19:52:22.163Z,9.00
2017-08-22T19:54:48.792Z,14.17
2017-08-22T19:57:15.402Z,14.83
2017-08-22T19:59:41.992Z,11.57
2017-08-22T20:02:08.777Z,9.90
2017-08-22T20:04:35.494Z,10.60
2017-08-22T20:07:02.071Z,8.97
2017-08-22T20:09:28.676Z,9.10
2017-08-22T20:11:55.275Z,9.80
2017-08-22T20:14:21.915Z,8.60
2017-08-22T20:16:48.511Z,10.90
2017-08-22T20:19:15.111Z,10.20
2017-08-22T20:21:41.718Z,10.10
2017-08-22T20:24:08.307Z,10.27
2017-08-22T20:26:35.344Z,12.07
2017-08-22T20:29:01.948Z,15.80
2017-08-22T20:31:28.699Z,9.40
2017-08-22T20:33:55.280Z,7.90
2017-08-22T20:36:21.887Z,13.10
2017-08-22T20:38:48.663Z,8.07
2017-08-22T20:41:24.945Z,11.23
2017-08-22T20:43:51.972Z,10.60
2017-08-22T20:46:18.559Z,9.03
2017-08-22T20:48:45.148Z,9.90
2017-08-22T20:51:11.773Z,9.67
2017-08-22T20:53:38.345Z,9.80
2017-08-22T20:56:04.993Z,14.33
2017-08-22T20:58:31.583Z,12.63
2017-08-22T21:00:58.247Z,13.00
2017-08-22T21:03:24.832Z,11.07
2017-08-22T21:05:51.424Z,10.03
2017-08-22T21:08:18.352Z,12.10
2017-08-22T21:10:44.987Z,13.33
2017-08-22T21:13:11.582Z,12.90
2017-08-22T21:15:38.179Z,13.40
2017-08-22T21:18:04.771Z,10.10
2017-08-22T21:20:31.469Z,12.80
2017-08-22T21:22:58.050Z,12.70
2017-08-22T21:25:24.682Z,11.70
2017-08-22T21:27:51.267Z,11.63
2017-08-22T21:30:17.899Z,10.33
2017-08-22T21:32:44.512Z,10.73
2017-08-22T21:35:11.091Z,10.70
2017-08-22T21:37:37.683Z,11.13
2017-08-22T21:40:04.284Z,15.43
2017-08-22T21:42:30.871Z,9.83
2017-08-22T21:44:57.505Z,12.73
2017-08-22T21:47:24.084Z,9.07
2017-08-22T21:49:50.671Z,9.60
2017-08-22T21:52:17.268Z,17.27
2017-08-22T21:54:43.854Z,11.07
2017-08-22T21:57:10.595Z,9.33
2017-08-22T21:59:37.190Z,15.33
2017-08-22T22:02:03.783Z,10.43
2017-08-22T22:04:30.383Z,11.43
2017-08-22T22:06:56.972Z,11.00
2017-08-22T22:09:23.591Z,14.37
2017-08-22T22:11:50.222Z,13.30
2017-08-22T22:14:16.812Z,15.27
2017-08-22T22:16:43.468Z,13.80
2017-08-22T22:19:10.058Z,15.23
2017-08-22T22:21:37.023Z,9.33
2017-08-22T22:24:03.627Z,17.13
2017-08-22T22:26:30.215Z,10.33
2017-08-22T22:28:56.831Z,9.77
2017-08-22T22:31:23.423Z,11.70
2017-08-22T22:33:50.140Z,17.40
2017-08-22T22:36:16.735Z,10.83
2017-08-22T22:38:43.323Z,11.33
2017-08-22T22:41:09.928Z,12.40
2017-08-22T22:43:36.544Z,12.43
2017-08-22T22:46:03.535Z,9.90
2017-08-22T22:48:30.129Z,16.40
2017-08-22T22:50:56.715Z,10.53
2017-08-22T22:53:23.316Z,12.17
2017-08-22T22:55:49.904Z,12.47
2017-08-22T22:58:16.863Z,10.03
2017-08-22T23:00:43.459Z,10.53
2017-08-22T23:03:10.047Z,10.30
2017-08-22T23:05:36.639Z,11.23
2017-08-22T23:08:03.287Z,11.67
2017-08-22T23:10:30.016Z,10.83
2017-08-22T23:12:56.602Z,14.17
2017-08-22T23:15:23.192Z,9.50
2017-08-22T23:17:49.811Z,12.80
2017-08-22T23:20:16.403Z,12.60
2017-08-22T23:22:43.467Z,13.90
2017-08-22T23:25:10.055Z,10.13
2017-08-22T23:27:36.651Z,12.57
2017-08-22T23:30:03.248Z,10.80
2017-08-22T23:32:29.850Z,10.17
2017-08-22T23:34:57.420Z,14.90
2017-08-22T23:37:24.019Z,11.33
2017-08-22T23:39:50.611Z,17.57
2017-08-22T23:42:17.259Z,11.13
2017-08-22T23:44:43.923Z,10.17
2017-08-22T23:47:10.560Z,9.20
2017-08-22T23:49:37.152Z,12.47
2017-08-22T23:52:03.744Z,14.20
2017-08-22T23:54:30.343Z,14.30
2017-08-22T23:56:56.922Z,9.90
2017-08-22T23:59:23.960Z,12.37
